Time;durP1;ratioP1;P1;durP2;ratioP2;P2;SDS_P1;SDS_P2;PMS_P1;PMS_P2;Temp;Humidity;BMP_temperature;BMP_pressure;BME280_temperature;BME280_humidity;BME280_pressure;Samples;Min_cycle;Max_cycle;Signal;HPM_P1;HPM_P2
2023/03/29 00:01:50;;;;;;;4.10;2.40;;;5.30;99.90;;;;;;485509;245;27457;-75
2023/03/29 00:03:52;;;;;;;2.90;2.20;;;5.30;99.90;;;;;;485482;245;27475;-75
2023/03/29 00:05:56;;;;;;;4.62;2.45;;;5.30;99.90;;;;;;485367;241;27606;-75
2023/03/29 00:08:00;;;;;;;2.33;2.10;;;5.30;99.90;;;;;;485460;245;27515;-74
2023/03/29 00:09:57;;;;;;;2.35;2.17;;;5.30;99.90;;;;;;485289;245;27582;-74
2023/03/29 00:11:59;;;;;;;2.05;1.95;;;5.30;99.90;;;;;;485514;245;27501;-75
2023/03/29 00:14:00;;;;;;;2.25;2.05;;;5.30;99.90;;;;;;485476;245;27459;-75
2023/03/29 00:16:01;;;;;;;2.70;2.00;;;5.30;99.90;;;;;;485419;245;27587;-75
2023/03/29 00:18:02;;;;;;;3.70;2.40;;;5.30;99.90;;;;;;485490;245;28101;-75
2023/03/29 00:20:07;;;;;;;3.70;2.90;;;5.30;99.90;;;;;;485504;245;28001;-75
2023/03/29 00:22:05;;;;;;;2.50;2.30;;;5.30;99.90;;;;;;485293;245;27590;-75
2023/03/29 00:24:06;;;;;;;6.22;3.22;;;5.30;99.90;;;;;;485512;245;27467;-75
2023/03/29 00:26:07;;;;;;;4.55;3.20;;;5.30;99.90;;;;;;485437;245;27492;-75
2023/03/29 00:28:09;;;;;;;4.18;3.25;;;5.20;99.90;;;;;;485511;245;27590;-75
2023/03/29 00:30:10;;;;;;;4.60;3.22;;;5.20;99.90;;;;;;485508;245;27472;-75
2023/03/29 00:32:11;;;;;;;7.75;3.40;;;5.20;99.90;;;;;;485502;245;27503;-75
2023/03/29 00:34:12;;;;;;;3.55;2.90;;;5.20;99.90;;;;;;485453;245;28025;-75
2023/03/29 00:36:14;;;;;;;5.35;3.50;;;5.20;99.90;;;;;;485460;245;27990;-75
2023/03/29 00:38:15;;;;;;;4.43;3.20;;;5.10;99.90;;;;;;485481;245;27551;-75
2023/03/29 00:40:16;;;;;;;5.10;2.83;;;5.10;99.90;;;;;;485477;245;27465;-75
2023/03/29 00:42:17;;;;;;;4.00;2.80;;;5.20;99.90;;;;;;485465;245;27514;-75
2023/03/29 00:44:19;;;;;;;3.15;2.58;;;5.20;99.90;;;;;;485444;245;27529;-75
2023/03/29 00:46:20;;;;;;;3.10;2.40;;;5.20;99.90;;;;;;485461;245;27491;-75
2023/03/29 00:48:21;;;;;;;3.03;2.67;;;5.30;99.90;;;;;;485259;245;28052;-75
2023/03/29 00:50:24;;;;;;;2.75;2.28;;;5.20;99.90;;;;;;485353;245;28015;-76
2023/03/29 00:52:28;;;;;;;1.83;1.73;;;5.30;99.90;;;;;;485422;245;27595;-76
2023/03/29 00:54:26;;;;;;;2.37;2.17;;;5.30;99.90;;;;;;485277;245;27555;-75
2023/03/29 00:56:28;;;;;;;3.35;2.12;;;5.30;99.90;;;;;;485474;245;27488;-75
2023/03/29 00:58:28;;;;;;;2.67;2.12;;;5.30;99.90;;;;;;485411;245;27610;-75
2023/03/29 01:00:30;;;;;;;4.82;2.22;;;5.30;99.90;;;;;;485486;245;27567;-75
2023/03/29 01:02:33;;;;;;;5.05;2.00;;;5.30;99.90;;;;;;485429;245;27511;-75
2023/03/29 01:04:31;;;;;;;2.28;2.08;;;5.40;99.90;;;;;;485307;245;28012;-74
2023/03/29 01:06:33;;;;;;;2.05;1.95;;;5.30;99.90;;;;;;485450;245;27940;-75
2023/03/29 01:08:34;;;;;;;1.90;1.70;;;5.30;99.90;;;;;;485476;245;27519;-75
2023/03/29 01:10:35;;;;;;;3.85;2.10;;;5.30;99.90;;;;;;485506;245;27570;-75
2023/03/29 01:12:36;;;;;;;2.40;2.20;;;5.30;99.90;;;;;;485500;245;27466;-75
2023/03/29 01:14:38;;;;;;;2.20;2.00;;;5.30;99.90;;;;;;485424;245;27524;-75
2023/03/29 01:16:39;;;;;;;2.35;2.15;;;5.30;99.90;;;;;;484957;237;27527;-75
2023/03/29 01:18:40;;;;;;;3.95;2.65;;;5.30;99.90;;;;;;487321;244;27539;-76
2023/03/29 01:20:42;;;;;;;2.70;2.20;;;5.30;99.90;;;;;;487321;244;29198;-75
2023/03/29 01:22:43;;;;;;;2.50;2.30;;;5.20;99.90;;;;;;487309;244;27855;-75
2023/03/29 01:24:44;;;;;;;3.28;2.60;;;5.20;99.90;;;;;;487252;244;27906;-75
2023/03/29 01:26:45;;;;;;;2.00;1.90;;;5.20;99.90;;;;;;487309;244;27400;-75
2023/03/29 01:28:46;;;;;;;8.88;2.50;;;5.10;99.90;;;;;;487325;244;27451;-75
2023/03/29 01:30:48;;;;;;;2.55;2.35;;;5.10;99.90;;;;;;487311;244;27474;-75
2023/03/29 01:32:49;;;;;;;2.50;2.33;;;5.10;99.90;;;;;;487356;244;27963;-75
2023/03/29 01:34:50;;;;;;;3.25;2.17;;;5.20;99.90;;;;;;487288;244;28024;-75
2023/03/29 01:36:53;;;;;;;2.40;2.20;;;5.10;99.90;;;;;;487327;244;27474;-76
2023/03/29 01:38:53;;;;;;;3.65;2.20;;;5.20;99.90;;;;;;487237;244;27430;-75
2023/03/29 01:40:54;;;;;;;2.42;2.22;;;5.20;99.90;;;;;;487359;244;27491;-75
2023/03/29 01:42:55;;;;;;;3.15;2.47;;;5.30;99.90;;;;;;487376;244;27411;-75
2023/03/29 01:44:56;;;;;;;2.40;2.20;;;5.20;99.90;;;;;;487304;244;27532;-75
2023/03/29 01:46:58;;;;;;;4.35;2.20;;;5.20;99.90;;;;;;487375;244;27403;-75
2023/03/29 01:49:00;;;;;;;3.40;2.45;;;5.10;99.90;;;;;;487376;244;27930;-75
2023/03/29 01:51:02;;;;;;;6.12;2.15;;;5.10;99.90;;;;;;487320;244;27989;-75
2023/03/29 01:53:01;;;;;;;2.70;2.37;;;5.10;99.90;;;;;;487276;244;27507;-75
2023/03/29 01:55:03;;;;;;;4.18;2.37;;;5.00;99.90;;;;;;487283;244;27518;-75
2023/03/29 01:57:04;;;;;;;3.65;2.40;;;5.00;99.90;;;;;;487345;244;27470;-75
2023/03/29 01:59:05;;;;;;;5.75;2.60;;;4.90;99.90;;;;;;487344;244;27444;-75
2023/03/29 02:01:09;;;;;;;5.62;2.45;;;4.90;99.90;;;;;;487352;244;27781;-74
2023/03/29 02:03:08;;;;;;;2.62;2.42;;;4.90;99.90;;;;;;487240;244;27404;-75
2023/03/29 02:05:09;;;;;;;2.25;2.12;;;4.90;99.90;;;;;;487316;243;27519;-75
2023/03/29 02:07:10;;;;;;;2.00;1.90;;;4.90;99.90;;;;;;487349;244;27954;-75
2023/03/29 02:09:11;;;;;;;2.50;2.12;;;4.80;99.90;;;;;;487340;243;27911;-74
2023/03/29 02:11:13;;;;;;;4.68;2.12;;;4.80;99.90;;;;;;487362;244;27536;-75
2023/03/29 02:13:14;;;;;;;3.12;2.53;;;4.70;99.90;;;;;;487385;244;27399;-75
2023/03/29 02:15:16;;;;;;;3.20;2.67;;;4.70;99.90;;;;;;487291;244;27438;-75
2023/03/29 02:17:17;;;;;;;2.62;2.42;;;4.70;99.90;;;;;;487243;244;27475;-75
2023/03/29 02:19:18;;;;;;;3.35;2.50;;;4.70;99.90;;;;;;487296;244;27543;-75
2023/03/29 02:21:20;;;;;;;3.75;2.45;;;4.60;99.90;;;;;;487344;244;27781;-75
2023/03/29 02:23:21;;;;;;;4.20;2.47;;;4.60;99.90;;;;;;487321;244;27538;-75
2023/03/29 02:25:23;;;;;;;7.07;2.42;;;4.60;99.90;;;;;;487199;244;27920;-75
2023/03/29 02:27:23;;;;;;;2.53;2.00;;;4.50;99.90;;;;;;487249;244;27859;-75
2023/03/29 02:29:25;;;;;;;3.45;2.55;;;4.60;99.90;;;;;;487323;244;27515;-75
2023/03/29 02:31:25;;;;;;;2.67;2.47;;;4.50;99.90;;;;;;487358;244;27454;-75
2023/03/29 02:33:27;;;;;;;2.65;2.45;;;4.60;99.90;;;;;;487317;244;27463;-75
2023/03/29 02:35:32;;;;;;;2.83;2.30;;;4.60;99.90;;;;;;487286;244;27529;-75
2023/03/29 02:37:29;;;;;;;5.35;2.22;;;4.50;99.90;;;;;;487038;244;27404;-75
2023/03/29 02:39:31;;;;;;;2.75;2.45;;;4.60;99.90;;;;;;487351;244;27458;-74
2023/03/29 02:41:32;;;;;;;3.10;2.30;;;4.60;99.90;;;;;;487334;243;27438;-75
2023/03/29 02:43:33;;;;;;;6.07;2.50;;;4.60;99.90;;;;;;487336;243;27499;-74
2023/03/29 02:45:34;;;;;;;1.87;1.77;;;4.50;99.90;;;;;;487284;244;27902;-75
2023/03/29 02:47:35;;;;;;;3.10;2.45;;;4.50;99.90;;;;;;487304;244;27886;-75
2023/03/29 02:49:37;;;;;;;2.37;2.08;;;4.50;99.90;;;;;;487315;244;27458;-75
2023/03/29 02:51:38;;;;;;;2.10;2.00;;;4.50;99.90;;;;;;487318;244;27515;-75
2023/03/29 02:53:39;;;;;;;3.42;2.40;;;4.50;99.90;;;;;;487322;244;27407;-75
2023/03/29 02:55:40;;;;;;;3.67;2.20;;;4.40;99.90;;;;;;487278;244;27517;-75
2023/03/29 02:57:42;;;;;;;3.70;2.30;;;4.40;99.90;;;;;;487310;244;27395;-75
2023/03/29 02:59:43;;;;;;;2.58;2.35;;;4.30;99.90;;;;;;487310;244;27430;-75
2023/03/29 03:01:44;;;;;;;2.20;2.03;;;4.30;99.90;;;;;;487285;244;27779;-75
2023/03/29 03:03:46;;;;;;;2.33;2.12;;;4.30;99.90;;;;;;487342;244;27398;-75
2023/03/29 03:05:47;;;;;;;3.25;2.50;;;4.20;99.90;;;;;;487259;244;27903;-75
2023/03/29 03:07:48;;;;;;;2.65;2.20;;;4.20;99.90;;;;;;487317;244;27847;-75
2023/03/29 03:09:49;;;;;;;3.12;2.47;;;4.20;99.90;;;;;;487328;244;27909;-75
2023/03/29 03:11:50;;;;;;;5.07;2.58;;;4.20;99.90;;;;;;487380;244;27439;-75
2023/03/29 03:13:52;;;;;;;2.70;2.50;;;4.20;99.90;;;;;;487341;244;27422;-75
2023/03/29 03:15:53;;;;;;;2.58;2.37;;;4.20;99.90;;;;;;487292;244;27436;-75
2023/03/29 03:17:54;;;;;;;4.25;2.70;;;4.20;99.90;;;;;;487323;243;27395;-74
2023/03/29 03:19:55;;;;;;;5.20;2.40;;;4.10;99.90;;;;;;487337;244;27451;-75
2023/03/29 03:21:57;;;;;;;2.37;2.17;;;4.10;99.90;;;;;;487347;244;27435;-75
2023/03/29 03:23:58;;;;;;;3.15;2.42;;;4.10;99.90;;;;;;487333;244;27403;-75
2023/03/29 03:25:59;;;;;;;2.50;2.30;;;4.10;99.90;;;;;;487267;243;27427;-75
2023/03/29 03:28:01;;;;;;;4.90;2.35;;;4.10;99.90;;;;;;487326;244;27442;-75
2023/03/29 03:30:04;;;;;;;3.20;2.28;;;4.10;99.90;;;;;;487285;244;27981;-75
2023/03/29 03:32:03;;;;;;;2.50;2.30;;;4.10;99.90;;;;;;487196;244;27926;-75
2023/03/29 03:34:04;;;;;;;7.00;2.60;;;4.20;99.90;;;;;;487321;244;27983;-75
2023/03/29 03:36:05;;;;;;;4.20;3.12;;;4.20;99.90;;;;;;487268;244;27434;-75
2023/03/29 03:38:07;;;;;;;3.12;2.83;;;4.10;99.90;;;;;;487286;244;27415;-75
2023/03/29 03:40:10;;;;;;;2.40;2.22;;;4.10;99.90;;;;;;487325;244;27412;-75
2023/03/29 03:42:09;;;;;;;3.00;2.65;;;4.10;99.90;;;;;;487211;244;27557;-76
2023/03/29 03:44:12;;;;;;;3.20;2.90;;;4.00;99.90;;;;;;487300;244;27454;-75
2023/03/29 03:46:12;;;;;;;2.90;2.53;;;4.00;99.90;;;;;;487210;244;27429;-75
2023/03/29 03:48:13;;;;;;;7.93;2.90;;;4.10;99.90;;;;;;487311;243;27502;-75
2023/03/29 03:50:14;;;;;;;4.32;2.62;;;4.10;99.90;;;;;;487306;244;27882;-75
2023/03/29 03:52:16;;;;;;;3.15;2.90;;;4.10;99.90;;;;;;487313;244;27927;-75
2023/03/29 03:54:17;;;;;;;3.30;2.87;;;4.10;99.90;;;;;;487265;244;27952;-75
2023/03/29 03:56:19;;;;;;;3.15;2.30;;;4.10;99.90;;;;;;487274;244;27434;-75
2023/03/29 03:58:19;;;;;;;3.03;2.72;;;4.10;99.90;;;;;;487266;244;27443;-75
2023/03/29 04:00:21;;;;;;;2.90;2.55;;;4.10;99.90;;;;;;487313;244;27446;-75
2023/03/29 04:02:22;;;;;;;3.17;2.85;;;4.10;99.90;;;;;;487220;244;27422;-75
2023/03/29 04:04:23;;;;;;;2.58;2.37;;;4.10;99.90;;;;;;487244;244;27403;-75
2023/03/29 04:06:24;;;;;;;2.95;2.75;;;4.10;99.90;;;;;;487314;244;27502;-75
2023/03/29 04:08:26;;;;;;;6.18;3.42;;;4.00;99.90;;;;;;487295;244;27431;-75
2023/03/29 04:10:27;;;;;;;3.53;2.90;;;3.90;99.90;;;;;;487331;244;27509;-75
2023/03/29 04:12:28;;;;;;;5.37;2.90;;;3.80;99.90;;;;;;487209;244;27439;-75
2023/03/29 04:14:30;;;;;;;2.87;2.65;;;3.70;99.90;;;;;;487242;244;27967;-75
2023/03/29 04:16:30;;;;;;;3.17;2.58;;;3.70;99.90;;;;;;487235;244;27902;-75
2023/03/29 04:18:32;;;;;;;6.30;2.75;;;3.60;99.90;;;;;;487305;244;27942;-75
2023/03/29 04:20:33;;;;;;;3.17;2.75;;;3.60;99.90;;;;;;487342;244;27491;-74
2023/03/29 04:22:34;;;;;;;3.00;2.70;;;3.50;99.90;;;;;;487279;244;27435;-75
2023/03/29 04:24:35;;;;;;;4.85;2.65;;;3.50;99.90;;;;;;487220;244;27399;-74
2023/03/29 04:26:37;;;;;;;4.43;2.72;;;3.50;99.90;;;;;;487284;244;27438;-75
2023/03/29 04:28:38;;;;;;;2.80;2.60;;;3.40;99.90;;;;;;487295;244;27509;-75
2023/03/29 04:30:39;;;;;;;2.40;2.22;;;3.40;99.90;;;;;;487266;244;27403;-74
2023/03/29 04:32:40;;;;;;;3.37;2.95;;;3.40;99.90;;;;;;487250;244;27537;-74
2023/03/29 04:34:42;;;;;;;3.65;2.40;;;3.30;99.90;;;;;;487248;244;27494;-75
2023/03/29 04:36:43;;;;;;;5.10;3.05;;;3.40;99.90;;;;;;487291;244;27520;-75
2023/03/29 04:38:44;;;;;;;3.17;2.78;;;3.60;99.90;;;;;;487277;244;27506;-75
2023/03/29 04:40:45;;;;;;;3.00;2.70;;;3.70;99.90;;;;;;487301;244;27856;-75
2023/03/29 04:42:47;;;;;;;4.10;3.15;;;3.70;99.90;;;;;;487273;244;27971;-74
2023/03/29 04:44:48;;;;;;;4.07;3.35;;;3.80;99.90;;;;;;487250;243;28730;-75
2023/03/29 04:46:49;;;;;;;3.60;3.17;;;3.80;99.90;;;;;;487298;244;27496;-74
2023/03/29 04:48:51;;;;;;;2.80;2.60;;;3.80;99.90;;;;;;487313;244;27430;-75
2023/03/29 04:50:53;;;;;;;3.58;2.50;;;3.80;99.90;;;;;;487335;244;27474;-75
2023/03/29 04:52:53;;;;;;;3.10;2.80;;;3.80;99.90;;;;;;487260;244;27443;-75
2023/03/29 04:54:54;;;;;;;8.07;3.17;;;3.80;99.90;;;;;;487250;244;27391;-75
2023/03/29 04:56:55;;;;;;;3.05;2.70;;;3.70;99.90;;;;;;487315;244;27495;-74
2023/03/29 04:58:57;;;;;;;7.18;3.25;;;3.60;99.90;;;;;;487328;244;27561;-75
2023/03/29 05:00:58;;;;;;;2.80;2.53;;;3.60;99.90;;;;;;487305;244;27390;-75
2023/03/29 05:02:59;;;;;;;3.20;2.90;;;3.50;99.90;;;;;;487306;244;27461;-75
2023/03/29 05:05:00;;;;;;;2.60;2.40;;;3.50;99.90;;;;;;487255;244;27526;-75
2023/03/29 05:07:03;;;;;;;5.15;2.55;;;3.50;99.90;;;;;;487325;244;27961;-74
2023/03/29 05:09:03;;;;;;;3.72;2.85;;;3.50;99.90;;;;;;487303;244;28050;-75
2023/03/29 05:11:05;;;;;;;4.70;2.85;;;3.60;99.90;;;;;;487289;244;27948;-74
2023/03/29 05:13:05;;;;;;;2.70;2.50;;;3.50;99.90;;;;;;487272;244;28063;-75
2023/03/29 05:15:07;;;;;;;5.15;3.00;;;3.50;99.90;;;;;;487264;244;27427;-74
2023/03/29 05:17:08;;;;;;;5.35;3.00;;;3.60;99.90;;;;;;487340;244;27474;-74
2023/03/29 05:19:10;;;;;;;5.62;2.95;;;3.50;99.90;;;;;;487325;244;27437;-75
2023/03/29 05:21:10;;;;;;;5.20;2.83;;;3.60;99.90;;;;;;487309;244;27439;-75
2023/03/29 05:23:12;;;;;;;2.90;2.60;;;3.60;99.90;;;;;;487266;243;27515;-75
2023/03/29 05:25:13;;;;;;;3.12;2.45;;;3.50;99.90;;;;;;487283;244;27479;-75
2023/03/29 05:27:15;;;;;;;2.97;2.67;;;3.50;99.90;;;;;;487328;244;27403;-74
2023/03/29 05:29:16;;;;;;;3.03;2.80;;;3.50;99.90;;;;;;487229;244;27519;-74
2023/03/29 05:31:17;;;;;;;3.85;2.78;;;3.50;99.90;;;;;;487301;244;27478;-75
2023/03/29 05:33:18;;;;;;;4.00;2.90;;;3.40;99.90;;;;;;487292;244;27926;-75
2023/03/29 05:35:19;;;;;;;3.35;3.05;;;3.30;99.90;;;;;;487208;244;27920;-75
2023/03/29 05:37:20;;;;;;;4.78;3.47;;;3.30;99.90;;;;;;487338;244;29017;-75
2023/03/29 05:39:22;;;;;;;3.40;3.08;;;3.30;99.90;;;;;;487328;244;27870;-75
2023/03/29 05:41:23;;;;;;;3.28;2.72;;;3.40;99.90;;;;;;487299;244;27404;-75
2023/03/29 05:43:24;;;;;;;8.55;3.58;;;3.50;99.90;;;;;;487305;244;27439;-75
2023/03/29 05:45:28;;;;;;;4.78;3.00;;;3.50;99.90;;;;;;487286;244;27450;-75
2023/03/29 05:47:27;;;;;;;4.10;3.45;;;3.60;99.90;;;;;;487176;244;27391;-75
2023/03/29 05:49:28;;;;;;;5.60;3.45;;;3.60;99.90;;;;;;487279;244;27486;-75
2023/03/29 05:51:29;;;;;;;4.00;3.20;;;3.80;99.90;;;;;;487316;244;27406;-75
2023/03/29 05:53:31;;;;;;;4.37;3.50;;;3.90;99.90;;;;;;487314;243;27447;-75
2023/03/29 05:55:32;;;;;;;7.05;3.62;;;4.00;99.90;;;;;;487282;243;27430;-75
2023/03/29 05:57:33;;;;;;;4.53;3.65;;;4.10;99.90;;;;;;487348;244;27432;-75
2023/03/29 05:59:34;;;;;;;4.90;3.15;;;4.20;99.90;;;;;;487324;244;28028;-75
2023/03/29 06:01:35;;;;;;;4.70;3.30;;;4.30;99.90;;;;;;487336;244;27935;-75
2023/03/29 06:03:37;;;;;;;4.28;3.37;;;4.40;99.90;;;;;;487308;244;27880;-75
2023/03/29 06:05:39;;;;;;;3.60;3.30;;;4.50;99.90;;;;;;487252;244;28004;-75
2023/03/29 06:07:39;;;;;;;4.03;3.62;;;4.60;99.90;;;;;;487308;244;27470;-75
2023/03/29 06:09:40;;;;;;;3.30;3.00;;;4.70;99.90;;;;;;487324;244;27434;-75
2023/03/29 06:11:42;;;;;;;6.25;3.85;;;4.80;99.90;;;;;;487309;244;27446;-75
2023/03/29 06:13:43;;;;;;;5.50;4.00;;;4.90;99.90;;;;;;487318;244;27391;-75
2023/03/29 06:15:44;;;;;;;5.25;3.62;;;5.00;99.90;;;;;;487297;244;27446;-76
2023/03/29 06:17:45;;;;;;;3.65;3.33;;;5.00;99.90;;;;;;487337;244;27479;-76
2023/03/29 06:19:47;;;;;;;6.30;3.50;;;5.10;99.90;;;;;;487347;244;27438;-75
2023/03/29 06:21:48;;;;;;;4.70;3.40;;;5.10;99.90;;;;;;487342;244;27891;-75
2023/03/29 06:23:49;;;;;;;18.98;3.90;;;5.20;99.90;;;;;;487317;244;27901;-75
2023/03/29 06:25:51;;;;;;;5.72;3.05;;;5.30;99.90;;;;;;487278;244;27447;-75
2023/03/29 06:27:53;;;;;;;4.30;3.25;;;5.40;99.90;;;;;;487335;244;27391;-74
2023/03/29 06:29:53;;;;;;;5.25;3.60;;;5.50;99.90;;;;;;487294;244;27437;-75
2023/03/29 06:31:56;;;;;;;3.30;3.00;;;5.60;99.90;;;;;;487359;244;27491;-75
2023/03/29 06:33:57;;;;;;;6.22;3.70;;;5.70;99.90;;;;;;487273;244;27462;-75
2023/03/29 06:35:57;;;;;;;5.80;3.12;;;5.80;99.90;;;;;;487203;244;27569;-75
2023/03/29 06:37:58;;;;;;;7.53;3.80;;;5.80;99.90;;;;;;487350;244;27863;-75
2023/03/29 06:39:59;;;;;;;6.05;3.90;;;5.90;99.90;;;;;;487346;244;27953;-75
2023/03/29 06:42:01;;;;;;;4.85;4.15;;;6.00;99.90;;;;;;487365;244;27539;-76
2023/03/29 06:44:02;;;;;;;4.25;3.37;;;6.10;99.90;;;;;;487308;244;27406;-75
2023/03/29 06:46:04;;;;;;;5.85;3.75;;;6.20;99.90;;;;;;487319;244;27442;-76
2023/03/29 06:48:05;;;;;;;4.57;3.37;;;6.30;99.90;;;;;;487365;244;27497;-76
2023/03/29 06:50:06;;;;;;;5.97;2.83;;;6.40;99.90;;;;;;487379;244;27852;-75
2023/03/29 06:52:07;;;;;;;7.35;2.78;;;6.40;99.90;;;;;;487387;244;27993;-76
2023/03/29 06:54:08;;;;;;;4.07;3.28;;;6.50;99.90;;;;;;487360;244;27413;-76
2023/03/29 06:56:10;;;;;;;4.53;2.93;;;6.60;99.90;;;;;;487301;244;27543;-75
2023/03/29 06:58:11;;;;;;;5.40;3.50;;;6.60;99.90;;;;;;487259;244;28339;-75
2023/03/29 07:00:26;;;;;;;3.47;3.10;;;6.70;99.90;;;;;;487231;244;28087;-76
2023/03/29 07:02:19;;;;;;;3.65;2.80;;;6.70;99.90;;;;;;486545;244;27474;-75
2023/03/29 07:04:22;;;;;;;4.53;3.07;;;6.80;99.90;;;;;;487010;244;27478;-75
2023/03/29 07:06:22;;;;;;;4.30;3.00;;;6.80;99.90;;;;;;487036;244;28017;-75
2023/03/29 07:08:29;;;;;;;5.20;2.80;;;6.80;99.90;;;;;;487238;244;28041;-76
2023/03/29 07:10:24;;;;;;;6.50;2.60;;;6.90;99.90;;;;;;486867;244;29208;-76
2023/03/29 07:12:25;;;;;;;3.13;2.83;;;6.90;99.90;;;;;;487341;244;28398;-76
2023/03/29 07:14:28;;;;;;;4.53;3.00;;;7.00;99.90;;;;;;487339;243;28204;-76
2023/03/29 07:16:28;;;;;;;3.43;2.73;;;7.00;99.90;;;;;;487321;244;28358;-76
2023/03/29 07:18:29;;;;;;;3.77;2.87;;;7.00;99.90;;;;;;487398;244;28047;-76
2023/03/29 07:20:30;;;;;;;9.18;3.40;;;7.00;99.90;;;;;;487380;244;27613;-76
2023/03/29 07:22:32;;;;;;;4.37;2.87;;;7.00;99.90;;;;;;487419;244;27514;-76
2023/03/29 07:24:33;;;;;;;3.50;2.67;;;7.10;99.90;;;;;;487315;244;27554;-76
2023/03/29 07:26:34;;;;;;;4.50;2.80;;;7.10;99.90;;;;;;487374;244;27908;-75
2023/03/29 07:28:39;;;;;;;3.87;3.10;;;7.10;99.90;;;;;;487352;244;27878;-76
2023/03/29 07:30:40;;;;;;;3.57;2.77;;;7.20;99.90;;;;;;487303;244;27943;-75
2023/03/29 07:32:41;;;;;;;7.50;2.90;;;7.20;99.90;;;;;;487359;244;27959;-75
2023/03/29 07:34:42;;;;;;;4.60;2.80;;;7.20;99.90;;;;;;487312;244;28513;-76
2023/03/29 07:36:44;;;;;;;4.83;2.83;;;7.30;99.90;;;;;;487400;244;28000;-76
2023/03/29 07:38:45;;;;;;;4.47;2.80;;;7.20;99.90;;;;;;487338;244;27992;-76
2023/03/29 07:40:46;;;;;;;5.13;2.67;;;7.30;99.90;;;;;;487373;244;27992;-75
2023/03/29 07:42:47;;;;;;;6.43;3.30;;;7.40;99.90;;;;;;487394;244;27871;-76
2023/03/29 07:44:49;;;;;;;6.07;3.43;;;7.30;99.90;;;;;;487355;244;27441;-75
2023/03/29 07:46:50;;;;;;;5.20;3.20;;;7.40;99.90;;;;;;487371;244;27883;-75
2023/03/29 07:48:51;;;;;;;3.43;2.90;;;7.40;99.90;;;;;;487343;244;27888;-76
2023/03/29 07:50:52;;;;;;;4.93;3.07;;;7.40;99.90;;;;;;487350;243;28231;-76
2023/03/29 07:52:54;;;;;;;6.13;3.07;;;7.50;99.90;;;;;;487402;244;27516;-76
2023/03/29 07:54:55;;;;;;;4.63;2.50;;;7.60;99.90;;;;;;487338;244;27921;-76
2023/03/29 07:56:56;;;;;;;6.43;3.03;;;7.60;99.90;;;;;;487364;244;27863;-76
2023/03/29 07:58:57;;;;;;;5.63;2.47;;;7.70;99.90;;;;;;487331;244;28523;-75
2023/03/29 08:01:02;;;;;;;5.93;3.50;;;7.60;99.90;;;;;;487414;244;28348;-76
2023/03/29 08:03:01;;;;;;;5.20;3.23;;;7.70;99.90;;;;;;486591;243;28450;-75
2023/03/29 08:05:01;;;;;;;3.83;2.97;;;7.70;99.90;;;;;;487205;244;27902;-76
2023/03/29 08:07:02;;;;;;;5.33;3.10;;;7.80;99.90;;;;;;487377;244;28358;-75
2023/03/29 08:09:03;;;;;;;6.90;3.20;;;7.90;99.90;;;;;;487373;244;27928;-76
2023/03/29 08:11:07;;;;;;;5.23;2.80;;;7.90;99.90;;;;;;487387;244;27793;-76
2023/03/29 08:13:09;;;;;;;5.07;2.60;;;7.90;99.90;;;;;;487216;243;27879;-76
2023/03/29 08:15:10;;;;;;;2.53;2.33;;;8.00;99.90;;;;;;487237;244;28040;-75
2023/03/29 08:17:11;;;;;;;3.30;2.60;;;8.20;99.90;;;;;;487334;244;27926;-76
2023/03/29 08:19:13;;;;;;;3.93;2.50;;;8.30;99.90;;;;;;487325;244;27965;-75
2023/03/29 08:21:14;;;;;;;3.57;2.50;;;8.30;99.90;;;;;;487349;244;27882;-76
2023/03/29 08:23:15;;;;;;;4.20;2.70;;;8.50;99.90;;;;;;487347;244;27949;-76
2023/03/29 08:25:16;;;;;;;3.60;2.53;;;8.70;99.90;;;;;;487261;244;27872;-75
2023/03/29 08:27:17;;;;;;;8.07;2.70;;;8.90;99.90;;;;;;487351;243;28045;-75
2023/03/29 08:29:19;;;;;;;8.13;3.20;;;9.00;99.90;;;;;;487332;244;28270;-76
2023/03/29 08:31:20;;;;;;;4.10;2.70;;;9.20;99.90;;;;;;487345;244;27732;-76
2023/03/29 08:33:21;;;;;;;7.53;3.20;;;9.20;99.90;;;;;;487346;244;27920;-76
2023/03/29 08:35:22;;;;;;;4.23;3.13;;;9.20;99.90;;;;;;487317;244;27789;-75
2023/03/29 08:37:24;;;;;;;4.90;3.07;;;9.20;99.90;;;;;;487338;244;27570;-76
2023/03/29 08:39:25;;;;;;;3.23;2.97;;;9.20;99.90;;;;;;487336;244;27911;-76
2023/03/29 08:41:26;;;;;;;3.90;3.07;;;9.20;99.90;;;;;;487325;243;27856;-76
2023/03/29 08:43:27;;;;;;;5.90;3.53;;;9.20;99.90;;;;;;487355;244;28380;-76
2023/03/29 08:45:29;;;;;;;4.83;3.47;;;9.40;99.90;;;;;;487304;244;27775;-76
2023/03/29 08:47:30;;;;;;;3.83;3.00;;;9.50;99.90;;;;;;487360;244;28056;-76
2023/03/29 08:49:31;;;;;;;4.50;3.70;;;9.70;99.90;;;;;;487346;244;27803;-75
2023/03/29 08:51:33;;;;;;;5.10;3.07;;;9.90;99.90;;;;;;487344;244;27917;-75
2023/03/29 08:53:34;;;;;;;3.83;2.90;;;10.00;99.90;;;;;;487339;244;28064;-76
2023/03/29 08:55:35;;;;;;;4.13;3.10;;;10.20;99.90;;;;;;487287;244;27917;-76
2023/03/29 08:57:36;;;;;;;6.77;2.90;;;10.20;99.90;;;;;;487365;244;27793;-75
2023/03/29 08:59:37;;;;;;;4.40;3.17;;;10.30;99.90;;;;;;487360;244;27855;-75
2023/03/29 09:01:39;;;;;;;4.53;3.07;;;10.30;99.90;;;;;;487370;244;28128;-76
2023/03/29 09:03:40;;;;;;;5.10;3.33;;;10.40;99.90;;;;;;487391;244;28105;-76
2023/03/29 09:05:41;;;;;;;5.57;3.30;;;10.40;99.90;;;;;;487332;244;28613;-76
2023/03/29 09:07:42;;;;;;;5.23;3.47;;;10.40;99.90;;;;;;487380;244;28745;-75
2023/03/29 09:09:44;;;;;;;4.17;3.20;;;10.40;99.90;;;;;;487394;244;28597;-75
2023/03/29 09:11:45;;;;;;;3.80;3.00;;;10.50;99.90;;;;;;487397;244;28080;-75
2023/03/29 09:13:47;;;;;;;7.13;4.87;;;10.60;99.90;;;;;;487402;244;28114;-76
2023/03/29 09:15:48;;;;;;;4.20;2.90;;;10.70;99.90;;;;;;487347;244;27908;-75
2023/03/29 09:17:49;;;;;;;3.50;3.00;;;10.80;99.90;;;;;;487348;244;28234;-76
2023/03/29 09:19:50;;;;;;;5.10;3.00;;;10.90;99.90;;;;;;487366;244;28158;-75
2023/03/29 09:21:51;;;;;;;3.00;2.60;;;11.00;99.90;;;;;;487364;244;28233;-76
2023/03/29 09:23:52;;;;;;;5.33;2.90;;;11.00;99.90;;;;;;487368;243;28231;-76
2023/03/29 09:25:54;;;;;;;4.33;2.90;;;11.00;99.90;;;;;;487299;244;28247;-76
2023/03/29 09:27:55;;;;;;;3.83;2.72;;;11.10;99.90;;;;;;486299;244;36486;-75
2023/03/29 09:29:56;;;;;;;3.83;2.40;;;11.20;99.90;;;;;;487323;244;27975;-76
2023/03/29 09:31:57;;;;;;;3.10;2.80;;;11.10;99.90;;;;;;487395;243;28977;-76
2023/03/29 09:33:59;;;;;;;3.10;2.80;;;11.10;99.90;;;;;;487367;243;29033;-76
2023/03/29 09:36:00;;;;;;;3.87;2.57;;;11.20;99.90;;;;;;487334;244;28199;-75
2023/03/29 09:38:01;;;;;;;4.33;3.07;;;11.30;99.90;;;;;;487357;244;27984;-76
2023/03/29 09:40:03;;;;;;;4.57;2.50;;;11.50;99.90;;;;;;487389;244;28482;-75
2023/03/29 09:42:04;;;;;;;4.10;2.87;;;11.50;99.90;;;;;;487368;244;27973;-75
2023/03/29 09:44:05;;;;;;;6.60;3.27;;;11.60;99.90;;;;;;487272;244;28489;-76
2023/03/29 09:46:06;;;;;;;5.20;2.47;;;11.70;99.90;;;;;;487292;244;28547;-75
2023/03/29 09:48:08;;;;;;;4.77;2.93;;;11.70;99.90;;;;;;487327;244;28375;-75
2023/03/29 09:50:09;;;;;;;7.17;5.50;;;11.90;99.90;;;;;;487338;244;28367;-76
2023/03/29 09:52:10;;;;;;;75.27;30.40;;;12.00;99.90;;;;;;487358;244;28473;-75
2023/03/29 09:54:11;;;;;;;111.20;44.60;;;11.90;99.90;;;;;;487336;244;29100;-76
2023/03/29 09:56:14;;;;;;;81.90;31.90;;;11.90;99.90;;;;;;487341;244;28041;-75
2023/03/29 09:58:14;;;;;;;225.23;70.30;;;11.90;99.90;;;;;;487287;244;27986;-75
2023/03/29 10:00:15;;;;;;;57.10;19.87;;;11.90;99.90;;;;;;487376;244;28347;-76
2023/03/29 10:02:16;;;;;;;10.23;5.37;;;11.90;99.90;;;;;;487376;244;28549;-75
2023/03/29 10:04:19;;;;;;;11.60;5.70;;;11.90;99.90;;;;;;487358;244;28789;-76
2023/03/29 10:06:19;;;;;;;7.97;4.10;;;12.00;99.90;;;;;;487254;244;29940;-76
2023/03/29 10:08:21;;;;;;;5.43;3.70;;;12.00;99.90;;;;;;487365;244;28774;-76
2023/03/29 10:10:21;;;;;;;6.07;3.60;;;11.90;99.90;;;;;;487383;244;28753;-76
2023/03/29 10:12:23;;;;;;;4.97;3.07;;;11.90;99.90;;;;;;487376;244;28398;-76
2023/03/29 10:14:24;;;;;;;7.40;3.60;;;12.00;99.90;;;;;;487323;244;28575;-76
2023/03/29 10:16:25;;;;;;;5.63;3.23;;;12.00;99.90;;;;;;487358;244;28233;-75
2023/03/29 10:18:26;;;;;;;11.00;3.50;;;12.00;99.90;;;;;;487396;244;28467;-75
2023/03/29 10:20:28;;;;;;;6.43;3.23;;;11.90;99.90;;;;;;487413;244;28022;-76
2023/03/29 10:22:29;;;;;;;4.60;2.70;;;12.00;99.90;;;;;;487381;243;28748;-76
2023/03/29 10:24:30;;;;;;;4.90;2.80;;;12.10;99.90;;;;;;487292;244;28481;-75
2023/03/29 10:26:31;;;;;;;4.47;2.83;;;12.10;99.90;;;;;;487359;244;29434;-75
2023/03/29 10:28:33;;;;;;;2.97;2.67;;;12.10;99.90;;;;;;487362;244;28771;-76
2023/03/29 10:30:36;;;;;;;4.53;2.80;;;;;;;;;;487395;244;29371;-76
2023/03/29 10:32:37;;;;;;;3.17;2.87;;;12.20;99.90;;;;;;487378;244;27706;-76
2023/03/29 10:34:38;;;;;;;4.33;3.03;;;12.40;99.90;;;;;;487314;244;28627;-75
2023/03/29 10:36:40;;;;;;;3.40;2.53;;;12.40;99.90;;;;;;487385;244;28110;-76
2023/03/29 10:38:40;;;;;;;8.17;3.20;;;12.50;99.90;;;;;;487347;244;29335;-75